Terminal Aerodrome Forecast
Issued by NWS

Home | Current Version | Previous Version | Text Only | Print | Product List | Glossary On
Versions: 1 2 3 4 5 6 7 8 9 10 11 12 13 14 15 16 17
000
FTUS44 KSJT 190500
TAFBBD
TAF
KBBD 190520Z 1906/2006 09005KT P6SM SCT015 BKN100
      TEMPO 1906/1908 BKN015
     FM190800 10005KT P6SM VCSH BKN015
     FM191500 16010KT P6SM SCT025 BKN050
     FM192000 16010KT P6SM SCT050 BKN100=

USA.gov is the U.S. government's official web portal to all federal, state and local government web resources and services.